createdAt,value
2018-11-26T00:00:15.855Z,36.93
2018-11-26T00:02:44.453Z,41.00
2018-11-26T00:05:13.047Z,38.10
2018-11-26T00:07:41.615Z,40.50
2018-11-26T00:10:21.461Z,44.23
2018-11-26T00:12:50.025Z,42.03
2018-11-26T00:15:24.103Z,41.40
2018-11-26T00:17:52.672Z,42.00
2018-11-26T00:20:21.220Z,35.77
2018-11-26T00:22:49.811Z,34.57
2018-11-26T00:25:18.347Z,34.63
2018-11-26T00:27:46.923Z,32.73
2018-11-26T00:30:15.484Z,34.57
2018-11-26T00:32:44.042Z,34.57
2018-11-26T00:35:12.571Z,37.20
2018-11-26T00:37:41.147Z,36.70
2018-11-26T00:40:11.061Z,39.27
2018-11-26T00:42:39.639Z,34.50
2018-11-26T00:45:10.490Z,40.17
2018-11-26T00:47:39.073Z,35.90
2018-11-26T00:50:09.096Z,34.57
2018-11-26T00:52:37.886Z,36.33
2018-11-26T00:55:08.427Z,34.83
2018-11-26T00:57:37.320Z,36.53
2018-11-26T01:00:09.442Z,40.13
2018-11-26T01:02:38.037Z,39.07
2018-11-26T01:05:07.285Z,35.50
2018-11-26T01:07:35.886Z,35.20
2018-11-26T01:10:04.495Z,36.47
2018-11-26T01:12:33.071Z,36.20
2018-11-26T01:15:01.603Z,34.73
2018-11-26T01:17:30.179Z,35.03
2018-11-26T01:19:58.714Z,37.90
2018-11-26T01:22:27.307Z,34.50
2018-11-26T01:24:55.850Z,32.13
2018-11-26T01:27:24.418Z,33.03
2018-11-26T01:29:52.946Z,35.90
2018-11-26T01:32:21.509Z,33.93
2018-11-26T01:34:50.051Z,33.30
2018-11-26T01:37:18.610Z,34.90
2018-11-26T01:39:47.142Z,33.63
2018-11-26T01:42:15.726Z,32.40
2018-11-26T01:44:44.274Z,33.87
2018-11-26T01:47:12.870Z,31.53
2018-11-26T01:49:41.432Z,32.93
2018-11-26T01:52:10.009Z,31.23
2018-11-26T01:54:38.550Z,32.97
2018-11-26T01:57:07.083Z,35.20
2018-11-26T01:59:35.651Z,31.90
2018-11-26T02:02:04.236Z,32.70
2018-11-26T02:04:32.834Z,32.83
2018-11-26T02:07:01.366Z,29.43
2018-11-26T02:09:29.918Z,33.17
2018-11-26T02:11:58.446Z,37.53
2018-11-26T02:14:27.003Z,33.70
2018-11-26T02:16:55.561Z,30.23
2018-11-26T02:19:24.126Z,31.10
2018-11-26T02:21:52.718Z,32.23
2018-11-26T02:24:21.285Z,30.70
2018-11-26T02:26:49.829Z,33.03
2018-11-26T02:29:18.395Z,29.43
2018-11-26T02:31:46.930Z,33.33
2018-11-26T02:34:15.475Z,29.37
2018-11-26T02:36:44.011Z,31.87
2018-11-26T02:39:12.559Z,36.13
2018-11-26T02:41:41.155Z,29.73
2018-11-26T02:44:09.705Z,31.00
2018-11-26T02:46:38.226Z,32.17
2018-11-26T02:49:06.779Z,30.20
2018-11-26T02:51:35.299Z,29.30
2018-11-26T02:54:03.903Z,30.50
2018-11-26T02:56:32.434Z,29.53
2018-11-26T02:59:00.991Z,29.90
2018-11-26T03:01:29.505Z,28.47
2018-11-26T03:03:58.054Z,26.90
2018-11-26T03:06:26.593Z,25.20
2018-11-26T03:08:55.266Z,24.80
2018-11-26T03:11:23.793Z,22.40
2018-11-26T03:13:52.362Z,22.80
2018-11-26T03:16:21.000Z,27.20
2018-11-26T03:18:49.549Z,20.50
2018-11-26T03:21:18.094Z,20.93
2018-11-26T03:23:46.637Z,18.50
2018-11-26T03:26:15.144Z,19.67
2018-11-26T03:28:44.283Z,20.90
2018-11-26T03:31:12.832Z,19.67
2018-11-26T03:33:41.366Z,19.03
2018-11-26T03:36:09.892Z,20.27
2018-11-26T03:38:55.286Z,18.13
2018-11-26T03:41:24.372Z,19.37
2018-11-26T03:43:53.003Z,18.67
2018-11-26T03:46:21.522Z,17.57
2018-11-26T03:48:50.066Z,19.90
2018-11-26T03:51:18.590Z,20.07
2018-11-26T03:53:47.121Z,15.90
2018-11-26T03:56:15.676Z,16.60
2018-11-26T03:58:44.215Z,16.60
2018-11-26T04:01:12.741Z,19.50
2018-11-26T04:03:41.278Z,18.30
2018-11-26T04:06:09.804Z,17.03
2018-11-26T04:08:38.465Z,16.07
2018-11-26T04:11:07.018Z,17.13
2018-11-26T04:13:35.559Z,17.97
2018-11-26T04:16:04.125Z,17.10
2018-11-26T04:18:32.683Z,21.03
2018-11-26T04:21:01.236Z,18.53
2018-11-26T04:23:29.774Z,20.23
2018-11-26T04:25:58.282Z,19.90
2018-11-26T04:28:26.829Z,17.77
2018-11-26T04:30:55.342Z,19.93
2018-11-26T04:33:23.881Z,17.97
2018-11-26T04:35:52.406Z,19.63
2018-11-26T04:38:20.916Z,17.97
2018-11-26T04:40:49.469Z,19.73
2018-11-26T04:43:20.187Z,19.87
2018-11-26T04:45:48.747Z,19.80
2018-11-26T04:48:17.330Z,19.27
2018-11-26T04:50:45.959Z,18.10
2018-11-26T04:53:14.517Z,18.90
2018-11-26T04:55:43.069Z,20.90
2018-11-26T04:58:11.587Z,18.63
2018-11-26T05:00:40.151Z,18.47
2018-11-26T05:03:08.688Z,21.20
2018-11-26T05:05:37.243Z,20.43
2018-11-26T05:08:05.816Z,18.17
2018-11-26T05:10:34.359Z,22.13
2018-11-26T05:13:03.010Z,20.70
2018-11-26T05:15:31.566Z,20.00
2018-11-26T05:18:00.098Z,21.27
2018-11-26T05:20:28.641Z,20.70
2018-11-26T05:22:57.202Z,18.90
2018-11-26T05:25:26.230Z,19.43
2018-11-26T05:27:54.758Z,16.57
2018-11-26T05:30:23.333Z,18.77
2018-11-26T05:32:51.866Z,19.47
2018-11-26T05:35:20.428Z,18.00
2018-11-26T05:37:48.949Z,19.00
2018-11-26T05:40:17.555Z,17.57
2018-11-26T05:42:46.167Z,21.97
2018-11-26T05:45:16.165Z,17.93
2018-11-26T05:47:44.696Z,18.47
2018-11-26T05:50:14.481Z,20.73
2018-11-26T05:52:43.010Z,17.73
2018-11-26T05:55:15.601Z,19.63
2018-11-26T05:57:44.997Z,21.87
2018-11-26T06:00:26.063Z,20.60
2018-11-26T06:02:54.610Z,17.13
2018-11-26T06:05:23.168Z,18.10
2018-11-26T06:07:51.702Z,19.30
2018-11-26T06:10:20.402Z,22.17
2018-11-26T06:12:48.924Z,19.53
2018-11-26T06:15:17.525Z,18.13
2018-11-26T06:17:46.063Z,19.30
2018-11-26T06:20:14.658Z,22.60
2018-11-26T06:22:45.175Z,19.60
2018-11-26T06:25:16.247Z,18.63
2018-11-26T06:27:45.502Z,18.20
2018-11-26T06:30:15.301Z,18.47
2018-11-26T06:32:44.225Z,17.13
2018-11-26T06:35:18.083Z,16.73
2018-11-26T06:37:47.442Z,16.37
2018-11-26T06:40:16.008Z,17.07
2018-11-26T06:42:44.879Z,18.93
2018-11-26T06:45:23.390Z,16.83
2018-11-26T06:47:52.474Z,16.77
2018-11-26T06:50:23.400Z,19.93
2018-11-26T06:52:51.990Z,21.47
2018-11-26T06:55:24.114Z,17.40
2018-11-26T06:57:52.810Z,17.73
2018-11-26T07:00:21.698Z,19.50
2018-11-26T07:02:54.810Z,19.90
2018-11-26T07:05:25.187Z,20.77
2018-11-26T07:07:55.174Z,19.23
2018-11-26T07:10:25.234Z,22.33
2018-11-26T07:12:55.471Z,18.07
2018-11-26T07:15:25.315Z,18.63
2018-11-26T07:17:54.724Z,20.53
2018-11-26T07:20:23.290Z,20.07
2018-11-26T07:22:56.047Z,25.70
2018-11-26T07:25:25.773Z,22.90
2018-11-26T07:27:55.224Z,21.07
2018-11-26T07:30:27.014Z,20.80
2018-11-26T07:32:55.555Z,24.70
2018-11-26T07:35:24.325Z,22.13
2018-11-26T07:37:52.899Z,20.23
2018-11-26T07:40:23.270Z,22.30
2018-11-26T07:43:01.738Z,21.20
2018-11-26T07:45:30.361Z,20.43
2018-11-26T07:47:58.894Z,17.53
2018-11-26T07:50:27.451Z,20.13
2018-11-26T07:52:56.134Z,19.93
2018-11-26T07:55:24.695Z,18.80
2018-11-26T07:57:53.354Z,21.03
2018-11-26T08:00:23.187Z,19.27
2018-11-26T08:02:52.467Z,18.83
2018-11-26T08:05:23.893Z,17.53
2018-11-26T08:07:52.701Z,16.63
2018-11-26T08:10:24.012Z,18.47
2018-11-26T08:12:53.926Z,19.53
2018-11-26T08:15:23.646Z,17.77
2018-11-26T08:17:52.374Z,18.17
2018-11-26T08:20:21.004Z,16.50
2018-11-26T08:22:49.633Z,15.77
2018-11-26T08:25:20.004Z,17.10
2018-11-26T08:27:49.476Z,17.67
2018-11-26T08:30:21.362Z,16.17
2018-11-26T08:32:54.070Z,14.80
2018-11-26T08:35:22.671Z,15.97
2018-11-26T08:37:57.540Z,17.63
2018-11-26T08:40:27.496Z,14.80
2018-11-26T08:42:58.549Z,28.20
2018-11-26T08:45:29.926Z,16.43
2018-11-26T08:48:00.727Z,16.37
2018-11-26T08:50:29.307Z,13.93
2018-11-26T08:52:57.823Z,15.53
2018-11-26T08:55:26.390Z,15.10
2018-11-26T08:57:55.104Z,18.00
2018-11-26T09:00:23.708Z,18.43
2018-11-26T09:03:00.687Z,17.03
2018-11-26T09:05:34.691Z,18.33
2018-11-26T09:08:03.724Z,17.73
2018-11-26T09:10:32.375Z,20.07
2018-11-26T09:13:00.920Z,15.77
2018-11-26T09:15:29.481Z,18.87
2018-11-26T09:17:59.819Z,22.57
2018-11-26T09:20:29.098Z,19.70
2018-11-26T09:22:58.914Z,19.60
2018-11-26T09:25:27.574Z,19.23
2018-11-26T09:27:56.182Z,21.30
2018-11-26T09:30:25.358Z,20.77
2018-11-26T09:32:53.994Z,23.07
2018-11-26T09:35:22.675Z,21.47
2018-11-26T09:37:51.266Z,22.20
2018-11-26T09:40:19.818Z,21.67
2018-11-26T09:42:48.469Z,22.00
2018-11-26T09:45:18.142Z,21.43
2018-11-26T09:47:46.842Z,21.00
2018-11-26T09:50:17.833Z,20.10
2018-11-26T09:52:46.457Z,21.80
2018-11-26T09:55:16.058Z,23.20
2018-11-26T09:57:45.950Z,20.90
2018-11-26T10:00:23.519Z,20.77
2018-11-26T10:02:52.742Z,20.13
2018-11-26T10:05:23.655Z,21.37
2018-11-26T10:07:52.281Z,20.20
2018-11-26T10:10:20.863Z,21.93
2018-11-26T10:12:49.470Z,19.57
2018-11-26T10:15:20.251Z,22.90
2018-11-26T10:17:48.951Z,20.03
2018-11-26T10:20:17.548Z,19.93
2018-11-26T10:22:46.980Z,20.90
2018-11-26T10:25:16.532Z,19.00
2018-11-26T10:27:45.094Z,20.37
2018-11-26T10:30:14.786Z,19.70
2018-11-26T10:32:45.367Z,20.53
2018-11-26T10:35:14.991Z,18.03
2018-11-26T10:37:45.195Z,20.27
2018-11-26T10:40:15.931Z,23.07
2018-11-26T10:42:44.846Z,20.60
2018-11-26T10:45:15.497Z,20.20
2018-11-26T10:47:44.087Z,20.97
2018-11-26T10:50:15.109Z,18.90
2018-11-26T10:52:46.011Z,19.07
2018-11-26T10:55:16.078Z,18.53
2018-11-26T10:57:44.666Z,18.47
2018-11-26T11:00:20.070Z,18.37
2018-11-26T11:02:48.979Z,20.77
2018-11-26T11:05:17.546Z,18.97
2018-11-26T11:07:46.212Z,17.23
2018-11-26T11:10:19.943Z,19.13
2018-11-26T11:12:48.629Z,17.77
2018-11-26T11:15:17.299Z,17.10
2018-11-26T11:17:45.897Z,16.83
2018-11-26T11:20:17.622Z,16.37
2018-11-26T11:22:46.297Z,16.70
2018-11-26T11:25:15.903Z,15.50
2018-11-26T11:27:44.564Z,17.33
2018-11-26T11:30:17.355Z,14.13
2018-11-26T11:32:46.226Z,15.03
2018-11-26T11:35:18.456Z,16.30
2018-11-26T11:37:48.170Z,15.40
2018-11-26T11:40:19.850Z,15.73
2018-11-26T11:42:48.995Z,15.40
2018-11-26T11:45:17.773Z,17.70
2018-11-26T11:47:46.451Z,17.57
2018-11-26T11:50:16.556Z,16.33
2018-11-26T11:52:46.559Z,16.57
2018-11-26T11:55:17.007Z,15.97
2018-11-26T11:57:45.900Z,13.83
2018-11-26T12:00:25.975Z,15.93
2018-11-26T12:02:59.510Z,17.20
2018-11-26T12:05:28.375Z,15.30
2018-11-26T12:07:57.095Z,20.43
2018-11-26T12:10:25.714Z,16.17
2018-11-26T12:12:54.351Z,17.33
2018-11-26T12:15:23.059Z,17.37
2018-11-26T12:17:51.692Z,17.13
2018-11-26T12:20:20.327Z,15.93
2018-11-26T12:22:49.151Z,17.50
2018-11-26T12:25:19.215Z,19.97
2018-11-26T12:27:47.799Z,17.97
2018-11-26T12:30:21.643Z,18.73
2018-11-26T12:32:50.288Z,14.03
2018-11-26T12:35:18.900Z,13.43
2018-11-26T12:37:47.558Z,15.30
2018-11-26T12:40:17.622Z,15.40
2018-11-26T12:42:46.707Z,17.50
2018-11-26T12:45:31.919Z,16.30
2018-11-26T12:48:01.011Z,15.70
2018-11-26T12:50:29.668Z,14.13
2018-11-26T12:52:58.470Z,12.53
2018-11-26T12:55:27.138Z,13.93
2018-11-26T12:57:56.711Z,15.37
2018-11-26T13:00:26.581Z,15.30
2018-11-26T13:02:56.675Z,14.93
2018-11-26T13:05:25.508Z,13.33
2018-11-26T13:07:55.813Z,13.47
2018-11-26T13:10:24.520Z,15.37
2018-11-26T13:12:53.529Z,17.67
2018-11-26T13:15:25.642Z,13.73
2018-11-26T13:17:54.346Z,13.50
2018-11-26T13:20:25.679Z,14.17
2018-11-26T13:22:54.837Z,13.80
2018-11-26T13:25:27.892Z,15.73
2018-11-26T13:27:57.692Z,13.83
2018-11-26T13:30:28.361Z,13.63
2018-11-26T13:33:02.667Z,16.87
2018-11-26T13:35:32.091Z,14.03
2018-11-26T13:38:00.789Z,15.70
2018-11-26T13:40:29.395Z,15.10
2018-11-26T13:42:57.920Z,19.17
2018-11-26T13:45:28.171Z,14.97
2018-11-26T13:47:56.802Z,13.57
2018-11-26T13:50:29.858Z,13.33
2018-11-26T13:52:59.110Z,15.47
2018-11-26T13:55:27.934Z,15.83
2018-11-26T13:57:57.318Z,97.97
2018-11-26T14:00:25.969Z,33.67
2018-11-26T14:02:54.565Z,15.20
2018-11-26T14:05:23.154Z,15.27
2018-11-26T14:07:51.764Z,15.37
2018-11-26T14:10:26.463Z,16.70
2018-11-26T14:12:58.316Z,15.40
2018-11-26T14:15:27.031Z,13.63
2018-11-26T14:17:55.628Z,15.43
2018-11-26T14:20:24.312Z,14.03
2018-11-26T14:22:52.916Z,15.43
2018-11-26T14:25:21.567Z,15.23
2018-11-26T14:27:50.559Z,17.00
2018-11-26T14:30:21.540Z,14.87
2018-11-26T14:32:50.311Z,14.80
2018-11-26T14:35:18.931Z,16.60
2018-11-26T14:37:49.020Z,16.33
2018-11-26T14:40:31.710Z,14.83
2018-11-26T14:43:00.339Z,17.30
2018-11-26T14:45:29.051Z,17.67
2018-11-26T14:47:57.628Z,18.93
2018-11-26T14:50:26.304Z,15.67
2018-11-26T14:52:54.908Z,17.20
2018-11-26T14:55:27.440Z,14.07
2018-11-26T14:57:56.100Z,16.60
2018-11-26T15:00:24.735Z,15.97
2018-11-26T15:02:53.331Z,16.90
2018-11-26T15:05:21.946Z,16.47
2018-11-26T15:07:50.497Z,17.07
2018-11-26T15:10:20.380Z,15.63
2018-11-26T15:12:48.967Z,18.13
2018-11-26T15:15:18.808Z,16.67
2018-11-26T15:17:47.556Z,16.67
2018-11-26T15:20:20.286Z,17.93
2018-11-26T15:22:49.535Z,18.73
2018-11-26T15:25:22.248Z,17.03
2018-11-26T15:27:51.809Z,20.80
2018-11-26T15:30:22.163Z,20.47
2018-11-26T15:32:50.699Z,18.32
2018-11-26T15:35:20.564Z,17.90
2018-11-26T15:37:49.186Z,15.10
2018-11-26T15:40:18.852Z,19.60
2018-11-26T15:42:47.396Z,18.70
2018-11-26T15:45:22.208Z,20.30
2018-11-26T15:47:51.748Z,19.50
2018-11-26T15:50:20.855Z,18.87
2018-11-26T15:52:49.106Z,22.93
2018-11-26T15:55:18.877Z,18.57
2018-11-26T15:57:47.653Z,22.57
2018-11-26T16:00:18.275Z,21.63
2018-11-26T16:02:46.906Z,17.20
2018-11-26T16:05:17.919Z,19.63
2018-11-26T16:07:47.087Z,20.47
2018-11-26T16:10:15.827Z,20.33
2018-11-26T16:12:45.583Z,21.37
2018-11-26T16:15:16.574Z,26.43
2018-11-26T16:17:45.160Z,38.83
2018-11-26T16:20:16.170Z,47.10
2018-11-26T16:22:44.808Z,33.87
2018-11-26T16:25:14.792Z,26.63
2018-11-26T16:27:43.339Z,25.70
2018-11-26T16:30:13.197Z,23.00
2018-11-26T16:32:42.753Z,22.50
2018-11-26T16:35:16.799Z,24.83
2018-11-26T16:37:45.471Z,26.47
2018-11-26T16:40:15.307Z,27.83
2018-11-26T16:42:43.854Z,24.40
2018-11-26T16:45:15.512Z,24.87
2018-11-26T16:47:44.796Z,24.30
2018-11-26T16:50:14.447Z,25.33
2018-11-26T16:52:43.000Z,22.73
2018-11-26T16:55:12.796Z,23.67
2018-11-26T16:57:41.614Z,59.83
2018-11-26T17:00:16.481Z,82.03
2018-11-26T17:02:45.545Z,34.97
2018-11-26T17:05:16.609Z,42.97
2018-11-26T17:07:45.148Z,42.90
2018-11-26T17:10:13.709Z,24.27
2018-11-26T17:12:42.252Z,23.50
2018-11-26T17:15:13.892Z,27.80
2018-11-26T17:17:42.892Z,25.87
2018-11-26T17:20:12.636Z,25.00
2018-11-26T17:22:41.475Z,31.03
2018-11-26T17:25:11.251Z,21.73
2018-11-26T17:27:40.523Z,28.83
2018-11-26T17:30:22.426Z,24.83
2018-11-26T17:32:52.412Z,23.30
2018-11-26T17:35:21.197Z,24.30
2018-11-26T17:37:49.741Z,23.23
2018-11-26T17:40:19.695Z,22.73
2018-11-26T17:42:48.244Z,20.60
2018-11-26T17:45:17.411Z,24.37
2018-11-26T17:47:47.424Z,22.77
2018-11-26T17:50:25.202Z,23.07
2018-11-26T17:52:53.785Z,22.63
2018-11-26T17:55:22.356Z,27.37
2018-11-26T17:57:50.971Z,23.53
2018-11-26T18:00:22.266Z,23.53
2018-11-26T18:02:50.820Z,24.27
2018-11-26T18:05:21.639Z,22.63
2018-11-26T18:07:55.117Z,21.83
2018-11-26T18:10:23.725Z,22.57
2018-11-26T18:12:52.271Z,20.83
2018-11-26T18:15:20.856Z,21.73
2018-11-26T18:17:49.399Z,21.03
2018-11-26T18:20:19.408Z,25.20
2018-11-26T18:22:49.398Z,23.37
2018-11-26T18:25:18.574Z,23.57
2018-11-26T18:27:50.781Z,24.90
2018-11-26T18:30:22.087Z,21.93
2018-11-26T18:32:50.766Z,22.23
2018-11-26T18:35:20.026Z,22.67
2018-11-26T18:37:48.715Z,23.73
2018-11-26T18:40:17.805Z,38.53
2018-11-26T18:42:46.407Z,22.63
2018-11-26T18:45:16.308Z,24.97
2018-11-26T18:47:46.212Z,23.47
2018-11-26T18:50:16.160Z,25.70
2018-11-26T18:52:45.461Z,25.97
2018-11-26T18:55:14.083Z,26.17
2018-11-26T18:57:42.927Z,28.43
2018-11-26T19:00:16.368Z,27.63
2018-11-26T19:02:44.927Z,27.03
2018-11-26T19:05:14.729Z,27.27
2018-11-26T19:07:43.301Z,28.77
2018-11-26T19:10:19.928Z,26.13
2018-11-26T19:12:52.142Z,27.40
2018-11-26T19:15:22.764Z,25.90
2018-11-26T19:17:52.540Z,28.23
2018-11-26T19:20:21.248Z,26.60
2018-11-26T19:22:49.899Z,27.67
2018-11-26T19:25:19.026Z,29.80
2018-11-26T19:27:47.750Z,29.93
2018-11-26T19:30:16.415Z,30.17
2018-11-26T19:32:45.904Z,30.83
2018-11-26T19:35:15.676Z,32.83
2018-11-26T19:37:44.571Z,30.10
2018-11-26T19:40:17.145Z,31.77
2018-11-26T19:42:46.828Z,32.57
2018-11-26T19:45:16.726Z,28.00
2018-11-26T19:47:45.663Z,29.43
2018-11-26T19:50:17.395Z,30.13
2018-11-26T19:52:47.554Z,33.30
2018-11-26T19:55:23.376Z,30.97
2018-11-26T19:57:52.464Z,30.97
2018-11-26T20:00:24.139Z,29.77
2018-11-26T20:02:59.683Z,31.47
2018-11-26T20:05:32.619Z,29.83
2018-11-26T20:08:01.627Z,34.77
2018-11-26T20:10:30.317Z,34.47
2018-11-26T20:12:59.016Z,32.57
2018-11-26T20:15:27.794Z,34.57
2018-11-26T20:17:59.109Z,31.80
2018-11-26T20:20:24.981Z,34.23
2018-11-26T20:22:53.828Z,34.17
2018-11-26T20:25:22.184Z,35.37
2018-11-26T20:27:50.751Z,32.23
2018-11-26T20:30:19.292Z,33.30
2018-11-26T20:32:48.252Z,33.63
2018-11-26T20:35:16.871Z,32.30
2018-11-26T20:37:45.450Z,32.80
2018-11-26T20:40:16.398Z,32.77
2018-11-26T20:42:50.961Z,34.10
2018-11-26T20:45:19.517Z,34.93
2018-11-26T20:47:49.245Z,37.30
2018-11-26T20:50:24.156Z,37.67
2018-11-26T20:52:52.720Z,43.13
2018-11-26T20:55:22.536Z,37.83
2018-11-26T20:57:52.180Z,32.50
2018-11-26T21:00:22.011Z,37.97
2018-11-26T21:02:51.988Z,31.47
2018-11-26T21:05:20.592Z,39.70
2018-11-26T21:07:49.152Z,33.33
2018-11-26T21:10:17.976Z,36.67
2018-11-26T21:12:46.529Z,35.83
2018-11-26T21:15:16.483Z,35.30
2018-11-26T21:17:48.332Z,35.43
2018-11-26T21:20:21.581Z,36.10
2018-11-26T21:22:50.161Z,33.50
2018-11-26T21:25:18.916Z,32.63
2018-11-26T21:27:47.463Z,30.57
2018-11-26T21:30:17.421Z,35.17
2018-11-26T21:32:45.965Z,33.90
2018-11-26T21:35:15.842Z,31.57
2018-11-26T21:37:45.697Z,32.77
2018-11-26T21:40:20.354Z,30.27
2018-11-26T21:42:44.156Z,35.00
2018-11-26T21:45:21.215Z,33.80
2018-11-26T21:47:49.763Z,37.20
2018-11-26T21:50:18.335Z,32.43
2018-11-26T21:52:46.859Z,31.50
2018-11-26T21:55:17.655Z,37.00
2018-11-26T21:57:46.190Z,32.10
2018-11-26T22:00:18.296Z,37.40
2018-11-26T22:02:46.896Z,32.83
2018-11-26T22:05:15.474Z,29.90
2018-11-26T22:07:44.059Z,34.80
2018-11-26T22:10:17.634Z,31.57
2018-11-26T22:12:48.504Z,30.00
2018-11-26T22:15:17.312Z,29.17
2018-11-26T22:17:45.848Z,28.50
2018-11-26T22:20:19.816Z,32.87
2018-11-26T22:22:48.447Z,33.17
2018-11-26T22:25:17.028Z,30.80
2018-11-26T22:27:45.568Z,32.13
2018-11-26T22:30:17.544Z,32.17
2018-11-26T22:32:46.088Z,34.70
2018-11-26T22:35:14.683Z,30.73
2018-11-26T22:37:43.308Z,29.97
2018-11-26T22:40:14.051Z,30.07
2018-11-26T22:42:43.250Z,32.27
2018-11-26T22:45:15.924Z,32.70
2018-11-26T22:48:08.660Z,30.30
2018-11-26T22:50:38.495Z,33.73
2018-11-26T22:53:08.267Z,31.63
2018-11-26T22:55:36.838Z,34.63
2018-11-26T22:58:06.855Z,39.73
2018-11-26T23:00:41.372Z,34.83
2018-11-26T23:03:11.096Z,40.10
2018-11-26T23:05:39.657Z,38.30
2018-11-26T23:08:08.191Z,39.70
2018-11-26T23:10:36.753Z,38.13
2018-11-26T23:13:05.544Z,36.60
2018-11-26T23:15:34.108Z,37.83
2018-11-26T23:18:02.644Z,42.33
2018-11-26T23:20:31.203Z,38.40
2018-11-26T23:22:59.768Z,40.23
2018-11-26T23:25:28.314Z,40.30
2018-11-26T23:27:56.855Z,41.43
2018-11-26T23:30:26.785Z,39.07
2018-11-26T23:33:02.531Z,37.93
2018-11-26T23:35:31.092Z,38.70
2018-11-26T23:37:59.639Z,35.80
2018-11-26T23:40:28.208Z,41.30
2018-11-26T23:42:56.735Z,42.20
2018-11-26T23:45:26.292Z,39.30
2018-11-26T23:47:54.847Z,42.83
2018-11-26T23:50:23.409Z,37.93
2018-11-26T23:52:51.936Z,40.23
2018-11-26T23:55:22.052Z,43.17
2018-11-26T23:57:50.621Z,40.63
